Time;durP1;ratioP1;P1;durP2;ratioP2;P2;SDS_P1;SDS_P2;PMS_P1;PMS_P2;Temp;Humidity;BMP_temperature;BMP_pressure;BME280_temperature;BME280_humidity;BME280_pressure;Samples;Min_cycle;Max_cycle;Signal;HPM_P1;HPM_P2
2022/12/14 00:00:30;;;;;;;33.67;22.40;;;-0.50;99.90;;;;;;2084960;28;20032;-70
2022/12/14 00:01:31;;;;;;;30.38;22.45;;;-0.50;99.90;;;;;;2075225;28;20025;-70
2022/12/14 00:02:31;;;;;;;29.48;21.95;;;-0.50;99.90;;;;;;2074226;28;20017;-70
2022/12/14 00:03:32;;;;;;;29.98;22.60;;;-0.50;99.90;;;;;;2077622;28;20105;-70
2022/12/14 00:04:32;;;;;;;29.88;21.38;;;-0.50;99.90;;;;;;2075686;28;20025;-70
2022/12/14 00:05:34;;;;;;;30.83;22.35;;;-0.50;99.90;;;;;;2075707;28;20021;-70
2022/12/14 00:06:34;;;;;;;30.85;21.95;;;-0.50;99.90;;;;;;2076147;28;20042;-70
2022/12/14 00:07:35;;;;;;;29.15;20.83;;;-0.50;99.90;;;;;;2074975;28;20038;-70
2022/12/14 00:08:35;;;;;;;31.08;21.15;;;-0.50;99.90;;;;;;2075329;28;20684;-70
2022/12/14 00:09:36;;;;;;;26.58;20.75;;;-0.50;99.90;;;;;;2076027;28;20025;-70
2022/12/14 00:10:38;;;;;;;30.33;21.88;;;-0.50;99.90;;;;;;2074940;28;20021;-70
2022/12/14 00:11:38;;;;;;;29.10;21.63;;;-0.50;99.90;;;;;;2077056;28;20138;-70
2022/12/14 00:12:39;;;;;;;29.63;21.23;;;-0.50;99.90;;;;;;2074533;28;20036;-70
2022/12/14 00:13:40;;;;;;;30.58;21.17;;;-0.50;99.90;;;;;;2075950;28;20489;-70
2022/12/14 00:14:41;;;;;;;30.63;20.73;;;-0.50;99.90;;;;;;2076741;28;20025;-70
2022/12/14 00:15:41;;;;;;;27.90;20.23;;;-0.50;99.90;;;;;;2074928;28;20026;-70
2022/12/14 00:16:42;;;;;;;31.02;20.42;;;-0.50;99.90;;;;;;2074666;28;20033;-70
2022/12/14 00:17:43;;;;;;;28.95;20.13;;;-0.50;99.90;;;;;;2076968;28;20032;-70
2022/12/14 00:18:47;;;;;;;24.98;18.88;;;-0.50;99.90;;;;;;2074811;28;20106;-71
2022/12/14 00:19:48;;;;;;;28.77;20.00;;;-0.50;99.90;;;;;;2076375;28;20037;-70
2022/12/14 00:20:48;;;;;;;24.70;19.75;;;-0.50;99.90;;;;;;2077575;28;20497;-70
2022/12/14 00:21:49;;;;;;;25.92;19.40;;;-0.50;99.90;;;;;;2074721;28;20076;-71
2022/12/14 00:22:49;;;;;;;26.58;19.42;;;-0.50;99.90;;;;;;2073972;28;20030;-70
2022/12/14 00:23:51;;;;;;;26.85;19.60;;;-0.50;99.90;;;;;;2076279;28;20092;-70
2022/12/14 00:24:51;;;;;;;27.17;20.05;;;-0.50;99.90;;;;;;2073405;28;20068;-70
2022/12/14 00:25:52;;;;;;;29.90;22.23;;;-0.50;99.90;;;;;;2074034;28;20080;-70
2022/12/14 00:26:52;;;;;;;31.45;20.70;;;-0.50;99.90;;;;;;2076407;28;20026;-71
2022/12/14 00:27:53;;;;;;;29.92;21.17;;;-0.50;99.90;;;;;;2075871;28;20014;-70
2022/12/14 00:28:54;;;;;;;27.50;20.83;;;-0.50;99.90;;;;;;2075771;28;20030;-70
2022/12/14 00:29:55;;;;;;;27.42;20.35;;;-0.50;99.90;;;;;;2076645;28;20083;-70
2022/12/14 00:30:56;;;;;;;27.70;19.80;;;-0.50;99.90;;;;;;2074286;28;20857;-70
2022/12/14 00:31:57;;;;;;;28.48;20.88;;;-0.50;99.90;;;;;;2075823;28;20026;-70
2022/12/14 00:32:57;;;;;;;25.33;19.88;;;-0.50;99.90;;;;;;2074378;28;20032;-70
2022/12/14 00:33:59;;;;;;;30.77;21.55;;;-0.50;99.90;;;;;;2074156;28;20036;-70
2022/12/14 00:35:00;;;;;;;28.77;20.55;;;-0.50;99.90;;;;;;2073223;28;20021;-70
2022/12/14 00:36:01;;;;;;;26.38;19.65;;;-0.50;99.90;;;;;;2074167;28;20670;-70
2022/12/14 00:37:02;;;;;;;28.98;21.77;;;-0.50;99.90;;;;;;2075353;28;20053;-70
2022/12/14 00:38:02;;;;;;;26.60;20.52;;;-0.50;99.90;;;;;;2076158;28;20478;-70
2022/12/14 00:39:03;;;;;;;25.95;20.27;;;-0.50;99.90;;;;;;2075647;28;20013;-70
2022/12/14 00:40:05;;;;;;;26.92;19.73;;;-0.50;99.90;;;;;;2076258;28;20033;-70
2022/12/14 00:41:07;;;;;;;25.92;19.02;;;-0.50;99.90;;;;;;2074846;28;20045;-70
2022/12/14 00:42:07;;;;;;;24.38;18.67;;;-0.50;99.90;;;;;;2074707;28;20022;-70
2022/12/14 00:43:08;;;;;;;26.08;18.70;;;-0.50;99.90;;;;;;2075205;28;20036;-70
2022/12/14 00:44:08;;;;;;;23.27;17.70;;;-0.50;99.90;;;;;;2075875;28;20036;-70
2022/12/14 00:45:09;;;;;;;25.00;17.48;;;-0.50;99.90;;;;;;2074933;28;21593;-70
2022/12/14 00:46:10;;;;;;;26.73;17.63;;;-0.50;99.90;;;;;;2076678;28;20052;-70
2022/12/14 00:47:10;;;;;;;25.98;18.42;;;-0.50;99.90;;;;;;2075063;28;20496;-70
2022/12/14 00:48:12;;;;;;;21.70;16.67;;;-0.50;99.90;;;;;;2075862;28;20018;-70
2022/12/14 00:49:12;;;;;;;20.67;15.98;;;-0.50;99.90;;;;;;2075492;28;20030;-71
2022/12/14 00:50:13;;;;;;;23.88;16.70;;;-0.60;99.90;;;;;;2076394;28;20033;-70
2022/12/14 00:51:13;;;;;;;21.77;16.77;;;-0.60;99.90;;;;;;2077455;28;20124;-70
2022/12/14 00:52:14;;;;;;;22.13;16.40;;;-0.60;99.90;;;;;;2076353;28;20809;-70
2022/12/14 00:53:16;;;;;;;21.65;16.35;;;-0.60;99.90;;;;;;2075806;28;20032;-70
2022/12/14 00:54:16;;;;;;;21.92;16.60;;;-0.60;99.90;;;;;;2076117;28;20049;-70
2022/12/14 00:55:17;;;;;;;19.77;15.43;;;-0.60;99.90;;;;;;2075192;28;20040;-70
2022/12/14 00:56:17;;;;;;;21.45;15.52;;;-0.60;99.90;;;;;;2073871;28;20030;-70
2022/12/14 00:57:18;;;;;;;20.10;15.07;;;-0.60;99.90;;;;;;2076959;28;20085;-70
2022/12/14 00:58:22;;;;;;;19.67;15.57;;;-0.60;99.90;;;;;;2075519;28;20132;-70
2022/12/14 00:59:22;;;;;;;22.55;16.40;;;-0.60;99.90;;;;;;2076604;28;20053;-70
2022/12/14 01:00:23;;;;;;;20.90;15.77;;;-0.60;99.90;;;;;;2078528;28;20525;-70
2022/12/14 01:01:23;;;;;;;25.67;16.67;;;-0.70;99.90;;;;;;2076823;28;20034;-71
2022/12/14 01:02:24;;;;;;;23.10;18.00;;;-0.70;99.90;;;;;;2077055;28;20112;-70
2022/12/14 01:03:24;;;;;;;25.55;17.92;;;-0.60;99.90;;;;;;2077375;28;20037;-70
2022/12/14 01:04:26;;;;;;;25.85;18.52;;;-0.70;99.90;;;;;;2077820;28;20553;-70
2022/12/14 01:05:26;;;;;;;24.33;18.42;;;-0.70;99.90;;;;;;2076589;28;20672;-70
2022/12/14 01:06:27;;;;;;;27.23;18.75;;;-0.70;99.90;;;;;;2076848;28;20410;-70
2022/12/14 01:07:28;;;;;;;26.92;19.50;;;-0.60;99.90;;;;;;2076640;28;20397;-70
2022/12/14 01:08:34;;;;;;;26.50;18.52;;;-0.60;99.90;;;;;;2077375;28;20028;-70
2022/12/14 01:09:34;;;;;;;25.85;18.02;;;-0.60;99.90;;;;;;2074483;28;20770;-70
2022/12/14 01:10:39;;;;;;;25.02;17.85;;;-0.60;99.90;;;;;;2077962;28;20848;-70
2022/12/14 01:11:40;;;;;;;22.95;16.92;;;-0.60;99.90;;;;;;2078040;28;20032;-70
2022/12/14 01:12:41;;;;;;;22.05;16.13;;;-0.60;99.90;;;;;;2076134;28;20488;-70
2022/12/14 01:13:41;;;;;;;22.17;17.33;;;-0.60;99.90;;;;;;2076869;28;20022;-70
2022/12/14 01:14:42;;;;;;;22.63;17.63;;;-0.60;99.90;;;;;;2075646;28;20021;-70
2022/12/14 01:15:42;;;;;;;22.65;16.70;;;-0.60;99.90;;;;;;2077659;28;20038;-70
2022/12/14 01:16:43;;;;;;;22.55;16.77;;;-0.60;99.90;;;;;;2078163;28;20139;-70
2022/12/14 01:17:44;;;;;;;21.85;16.40;;;-0.60;99.90;;;;;;2077147;28;20132;-70
2022/12/14 01:18:44;;;;;;;20.52;16.20;;;-0.60;99.90;;;;;;2078304;28;20025;-70
2022/12/14 01:19:45;;;;;;;21.10;16.52;;;-0.60;99.90;;;;;;2078174;28;20473;-70
2022/12/14 01:20:45;;;;;;;28.63;17.13;;;-0.70;99.90;;;;;;2078667;28;20408;-71
2022/12/14 01:21:46;;;;;;;21.38;16.27;;;-0.70;99.90;;;;;;2078229;28;20045;-70
2022/12/14 01:22:46;;;;;;;19.80;15.38;;;-0.70;99.90;;;;;;2076677;28;20548;-70
2022/12/14 01:23:51;;;;;;;21.70;14.93;;;-0.70;99.90;;;;;;2076739;28;20022;-70
2022/12/14 01:24:52;;;;;;;18.10;14.07;;;-0.70;99.90;;;;;;2075396;28;20029;-70
2022/12/14 01:25:58;;;;;;;20.80;13.90;;;-0.70;99.90;;;;;;2077368;28;20087;-70
2022/12/14 01:26:58;;;;;;;19.02;15.18;;;-0.70;99.90;;;;;;2074963;28;20030;-70
2022/12/14 01:27:59;;;;;;;18.10;14.20;;;-0.70;99.90;;;;;;2076264;28;20022;-70
2022/12/14 01:28:59;;;;;;;20.65;13.85;;;-0.70;99.90;;;;;;2074504;28;20088;-70
2022/12/14 01:30:00;;;;;;;19.65;13.13;;;-0.80;99.90;;;;;;2075738;28;20049;-70
2022/12/14 01:31:21;;;;;;;19.35;13.98;;;-0.80;99.90;;;;;;2078996;28;20588;-70
2022/12/14 01:32:22;;;;;;;19.73;13.48;;;-0.80;99.90;;;;;;2077014;28;20515;-70
2022/12/14 01:33:22;;;;;;;21.05;14.00;;;-0.80;99.90;;;;;;2077014;28;20034;-70
2022/12/14 01:34:23;;;;;;;18.20;13.90;;;-0.80;99.90;;;;;;2078860;28;20477;-70
2022/12/14 01:35:23;;;;;;;20.83;15.43;;;-0.80;99.90;;;;;;2077391;28;20037;-70
2022/12/14 01:36:28;;;;;;;22.30;15.15;;;-0.80;99.90;;;;;;2077070;28;20109;-70
2022/12/14 01:37:28;;;;;;;18.33;13.75;;;-0.80;99.90;;;;;;2077990;28;20028;-70
2022/12/14 01:38:29;;;;;;;20.73;15.32;;;-0.80;99.90;;;;;;2076531;28;20033;-70
2022/12/14 01:39:30;;;;;;;22.45;15.00;;;-0.80;99.90;;;;;;2077179;28;20037;-70
2022/12/14 01:40:30;;;;;;;20.52;14.45;;;-0.80;99.90;;;;;;2084957;28;20028;-70
2022/12/14 01:41:34;;;;;;;20.38;14.80;;;-0.80;99.90;;;;;;2085548;28;20039;-70
2022/12/14 01:42:35;;;;;;;19.95;13.30;;;-0.80;99.90;;;;;;2076973;28;20478;-70
2022/12/14 01:43:53;;;;;;;18.08;13.27;;;-0.80;99.90;;;;;;2078627;28;20120;-70
2022/12/14 01:44:56;;;;;;;16.65;12.70;;;-0.80;99.90;;;;;;2077440;28;20040;-70
2022/12/14 01:45:57;;;;;;;15.52;12.30;;;-0.80;99.90;;;;;;2076120;28;20091;-70
2022/12/14 01:47:07;;;;;;;15.93;12.30;;;-0.80;99.90;;;;;;2075154;28;20037;-70
2022/12/14 01:48:11;;;;;;;15.73;12.82;;;-0.80;99.90;;;;;;2075972;28;20032;-70
2022/12/14 01:49:20;;;;;;;15.70;12.68;;;-0.80;99.90;;;;;;2077734;28;20021;-70
2022/12/14 01:50:34;;;;;;;17.20;13.60;;;-0.80;99.90;;;;;;2075202;28;20660;-70
2022/12/14 01:51:35;;;;;;;16.77;12.90;;;-0.80;99.90;;;;;;2079021;28;20048;-70
2022/12/14 01:52:41;;;;;;;17.05;13.15;;;-0.90;99.90;;;;;;2074228;28;20140;-70
2022/12/14 01:53:41;;;;;;;16.23;13.85;;;-0.80;99.90;;;;;;2079217;28;20192;-70
2022/12/14 01:54:57;;;;;;;17.50;13.00;;;-0.80;99.90;;;;;;2075567;28;20034;-70
2022/12/14 01:55:58;;;;;;;15.95;13.02;;;-0.80;99.90;;;;;;2076577;28;20412;-70
2022/12/14 01:56:59;;;;;;;15.32;12.70;;;-0.80;99.90;;;;;;2077951;28;20033;-70
2022/12/14 01:58:14;;;;;;;16.23;13.10;;;-0.80;99.90;;;;;;2074437;28;20128;-71
2022/12/14 01:59:20;;;;;;;15.98;12.25;;;-0.80;99.90;;;;;;2075953;28;20029;-71
2022/12/14 02:00:22;;;;;;;13.68;12.07;;;-0.80;99.90;;;;;;2078362;28;20034;-70
2022/12/14 02:01:22;;;;;;;14.77;11.90;;;-0.80;99.90;;;;;;2077032;28;20025;-70
2022/12/14 02:02:24;;;;;;;15.85;12.63;;;-0.80;99.90;;;;;;2076910;28;20500;-70
2022/12/14 02:03:29;;;;;;;17.15;12.82;;;-0.80;99.90;;;;;;2075481;28;21162;-70
2022/12/14 02:04:32;;;;;;;12.52;11.20;;;-0.80;99.90;;;;;;2076615;28;20724;-70
2022/12/14 02:05:36;;;;;;;15.50;11.90;;;-0.80;99.90;;;;;;2073877;28;20401;-69
2022/12/14 02:06:41;;;;;;;16.35;12.38;;;-0.80;99.90;;;;;;2077612;28;20024;-69
2022/12/14 02:07:43;;;;;;;15.45;11.98;;;-0.80;99.90;;;;;;2076193;28;20014;-69
2022/12/14 02:08:46;;;;;;;14.75;11.23;;;-0.80;99.90;;;;;;2075417;28;20030;-69
2022/12/14 02:09:48;;;;;;;14.00;11.90;;;-0.80;99.90;;;;;;2075831;28;20493;-69
2022/12/14 02:10:50;;;;;;;16.08;11.90;;;-0.80;99.90;;;;;;2073561;28;20105;-69
2022/12/14 02:12:05;;;;;;;15.00;11.73;;;-0.80;99.90;;;;;;2079294;28;20018;-69
2022/12/14 02:13:15;;;;;;;13.13;10.77;;;-0.80;99.90;;;;;;2082852;28;20037;-69
2022/12/14 02:14:16;;;;;;;14.20;11.85;;;-0.80;99.90;;;;;;2080788;28;20128;-69
2022/12/14 02:15:17;;;;;;;12.80;10.98;;;-0.80;99.90;;;;;;2074658;28;20041;-69
2022/12/14 02:16:18;;;;;;;15.18;11.32;;;-0.80;99.90;;;;;;2078115;28;20037;-70
2022/12/14 02:17:19;;;;;;;14.23;11.02;;;-0.80;99.90;;;;;;2073391;28;20033;-69
2022/12/14 02:18:22;;;;;;;12.82;10.73;;;-0.80;99.90;;;;;;2077413;28;20036;-69
2022/12/14 02:19:23;;;;;;;15.57;11.18;;;-0.80;99.90;;;;;;2075114;28;20032;-69
2022/12/14 02:20:33;;;;;;;14.90;11.60;;;-0.80;99.90;;;;;;2075553;28;20033;-69
2022/12/14 02:21:55;;;;;;;14.00;11.90;;;-0.70;99.90;;;;;;2076009;28;20030;-69
2022/12/14 02:23:09;;;;;;;12.90;10.43;;;-0.80;99.90;;;;;;2077233;28;20260;-69
2022/12/14 02:24:09;;;;;;;16.25;11.60;;;-0.80;99.90;;;;;;2077473;28;20029;-69
2022/12/14 02:25:30;;;;;;;14.60;11.57;;;-0.80;99.90;;;;;;2075470;28;20040;-69
2022/12/14 02:26:46;;;;;;;13.25;11.32;;;-0.80;99.90;;;;;;2074593;28;20379;-69
2022/12/14 02:28:05;;;;;;;13.57;11.15;;;-0.80;99.90;;;;;;2074649;28;20076;-69
2022/12/14 02:29:34;;;;;;;15.43;11.23;;;-0.80;99.90;;;;;;2076434;28;20036;-69
2022/12/14 02:30:41;;;;;;;15.02;11.15;;;-0.80;99.90;;;;;;2083904;28;20140;-69
2022/12/14 02:32:23;;;;;;;13.88;11.88;;;-0.80;99.90;;;;;;2083822;28;20017;-69
2022/12/14 02:33:44;;;;;;;16.02;11.02;;;-0.80;99.90;;;;;;2076301;28;20067;-69
2022/12/14 02:34:57;;;;;;;12.02;10.50;;;-0.80;99.90;;;;;;2075417;28;20121;-69
2022/12/14 02:36:23;;;;;;;13.63;10.52;;;-0.80;99.90;;;;;;2077301;28;20053;-69
2022/12/14 02:37:36;;;;;;;13.85;10.63;;;-0.80;99.90;;;;;;2076752;28;20047;-69
2022/12/14 02:39:10;;;;;;;13.73;10.65;;;-0.80;99.90;;;;;;2076893;28;20039;-69
2022/12/14 02:40:28;;;;;;;12.88;10.65;;;-0.80;99.90;;;;;;2085194;28;20384;-69
2022/12/14 02:41:52;;;;;;;13.27;10.50;;;-0.90;99.90;;;;;;2078046;28;20485;-70
2022/12/14 02:43:16;;;;;;;15.85;11.43;;;-0.90;99.90;;;;;;2076270;28;20033;-69
2022/12/14 02:44:41;;;;;;;16.08;11.10;;;-0.90;99.90;;;;;;2065249;28;20892;-69
2022/12/14 02:45:49;;;;;;;13.20;10.32;;;-0.90;99.90;;;;;;2073758;28;20030;-69
2022/12/14 02:47:18;;;;;;;14.60;10.68;;;-0.80;99.90;;;;;;2077472;28;20017;-69
2022/12/14 02:48:25;;;;;;;14.15;10.20;;;-0.80;99.90;;;;;;2078322;28;20029;-69
2022/12/14 02:49:47;;;;;;;13.50;10.43;;;-0.80;99.90;;;;;;2076453;28;20025;-69
2022/12/14 02:51:30;;;;;;;12.65;10.18;;;-0.80;99.90;;;;;;2077036;28;20017;-69
2022/12/14 02:53:08;;;;;;;11.68;10.10;;;-0.90;99.90;;;;;;2075720;28;20094;-69
2022/12/14 02:54:15;;;;;;;13.30;9.75;;;-0.90;99.90;;;;;;2077160;28;20025;-69
2022/12/14 02:55:34;;;;;;;12.82;10.38;;;-0.90;99.90;;;;;;2074610;28;20044;-69
2022/12/14 02:56:44;;;;;;;16.42;10.60;;;-0.90;99.90;;;;;;2075647;28;20151;-69
2022/12/14 02:58:00;;;;;;;13.80;10.60;;;-0.90;99.90;;;;;;2076466;28;20055;-69
2022/12/14 02:59:05;;;;;;;13.32;10.38;;;-0.90;99.90;;;;;;2077878;28;20122;-69
2022/12/14 03:00:06;;;;;;;14.65;11.27;;;-0.80;99.90;;;;;;2077478;28;20072;-69
2022/12/14 03:01:12;;;;;;;13.57;10.27;;;-0.90;99.90;;;;;;2076640;28;20029;-69
2022/12/14 03:02:13;;;;;;;12.18;10.57;;;-0.90;99.90;;;;;;2074342;28;20033;-69
2022/12/14 03:03:14;;;;;;;13.13;11.05;;;-0.80;99.90;;;;;;2074298;28;20033;-69
2022/12/14 03:04:15;;;;;;;12.77;10.52;;;-0.80;99.90;;;;;;2075329;28;20041;-69
2022/12/14 03:05:16;;;;;;;16.70;11.20;;;-0.80;99.90;;;;;;2076445;28;20034;-69
2022/12/14 03:06:24;;;;;;;12.60;11.07;;;-0.80;99.90;;;;;;2076536;28;20032;-69
2022/12/14 03:07:43;;;;;;;12.80;10.65;;;-0.80;99.90;;;;;;2075280;28;20029;-69
2022/12/14 03:08:46;;;;;;;17.70;13.20;;;-0.80;99.90;;;;;;2076698;28;20021;-69
2022/12/14 03:09:46;;;;;;;16.13;12.85;;;-0.80;99.90;;;;;;2076495;28;20056;-69
2022/12/14 03:10:58;;;;;;;16.95;12.75;;;-0.80;99.90;;;;;;2076256;28;20484;-69
2022/12/14 03:12:10;;;;;;;15.90;12.52;;;-0.80;99.90;;;;;;2075304;28;20542;-69
2022/12/14 03:13:29;;;;;;;14.48;11.90;;;-0.80;99.90;;;;;;2077684;28;20075;-69
2022/12/14 03:14:43;;;;;;;15.43;12.18;;;-0.80;99.90;;;;;;2077275;28;20113;-69
2022/12/14 03:15:51;;;;;;;15.32;12.32;;;-0.80;99.90;;;;;;2075989;28;20462;-69
2022/12/14 03:16:55;;;;;;;17.63;13.57;;;-0.80;99.90;;;;;;2075291;28;20037;-69
2022/12/14 03:17:59;;;;;;;18.67;13.27;;;-0.80;99.90;;;;;;2075738;28;20040;-69
2022/12/14 03:19:29;;;;;;;17.60;13.35;;;-0.80;99.90;;;;;;2075452;28;20026;-69
2022/12/14 03:20:32;;;;;;;19.90;13.48;;;-0.80;99.90;;;;;;2076945;28;20035;-69
2022/12/14 03:21:38;;;;;;;18.10;12.90;;;-0.80;99.90;;;;;;2076199;28;20056;-69
2022/12/14 03:22:50;;;;;;;16.20;13.23;;;-0.80;99.90;;;;;;2076547;28;20030;-69
2022/12/14 03:23:51;;;;;;;17.77;12.85;;;-0.80;99.90;;;;;;2076890;28;20035;-69
2022/12/14 03:24:59;;;;;;;17.75;13.52;;;-0.80;99.90;;;;;;2074712;28;20029;-69
2022/12/14 03:26:16;;;;;;;17.67;13.85;;;-0.80;99.90;;;;;;2075870;28;20026;-69
2022/12/14 03:27:22;;;;;;;17.45;13.88;;;-0.90;99.90;;;;;;2076588;28;20473;-69
2022/12/14 03:28:55;;;;;;;19.27;14.48;;;-0.80;99.90;;;;;;2076730;28;20061;-69
2022/12/14 03:30:01;;;;;;;17.42;12.90;;;-0.90;99.90;;;;;;2080013;28;20045;-69
2022/12/14 03:31:07;;;;;;;18.08;14.18;;;-0.90;99.90;;;;;;2085377;28;20064;-69
2022/12/14 03:32:11;;;;;;;18.05;14.10;;;-0.90;99.90;;;;;;2075754;28;20188;-69
2022/12/14 03:33:16;;;;;;;18.65;13.70;;;-0.90;99.90;;;;;;2075363;28;20014;-69
2022/12/14 03:34:22;;;;;;;21.30;15.02;;;-0.90;99.90;;;;;;2075877;28;20063;-69
2022/12/14 03:35:38;;;;;;;16.95;13.95;;;-0.90;99.90;;;;;;2075152;28;20029;-69
2022/12/14 03:36:48;;;;;;;17.10;13.98;;;-0.90;99.90;;;;;;2074922;28;20454;-70
2022/12/14 03:37:51;;;;;;;19.38;14.15;;;-0.90;99.90;;;;;;2077369;28;20151;-69
2022/12/14 03:38:58;;;;;;;19.15;13.63;;;-0.90;99.90;;;;;;2074913;28;20116;-69
2022/12/14 03:39:58;;;;;;;19.88;14.93;;;-0.90;99.90;;;;;;2076753;28;20434;-69
2022/12/14 03:41:19;;;;;;;19.23;14.95;;;-0.90;99.90;;;;;;2077776;28;20143;-69
2022/12/14 03:42:25;;;;;;;20.70;13.70;;;-0.90;99.90;;;;;;2075439;28;20036;-69
2022/12/14 03:43:37;;;;;;;18.10;12.80;;;-0.90;99.90;;;;;;2077118;28;20121;-69
2022/12/14 03:44:49;;;;;;;16.73;13.43;;;-0.90;99.90;;;;;;2075259;28;20021;-69
2022/12/14 03:46:02;;;;;;;19.77;13.75;;;-0.90;99.90;;;;;;2078027;28;20021;-69
2022/12/14 03:47:45;;;;;;;16.75;13.15;;;-0.90;99.90;;;;;;2074892;28;20018;-69
2022/12/14 03:48:50;;;;;;;15.40;12.90;;;-0.90;99.90;;;;;;2075334;28;20078;-69
2022/12/14 03:50:07;;;;;;;20.45;15.20;;;-0.90;99.90;;;;;;2075821;28;20032;-69
2022/12/14 03:51:29;;;;;;;18.83;14.02;;;-0.90;99.90;;;;;;2077939;28;20026;-69
2022/12/14 03:52:45;;;;;;;19.15;14.40;;;-0.90;99.90;;;;;;2076869;28;20029;-69
2022/12/14 03:54:09;;;;;;;19.02;14.40;;;-1.00;99.90;;;;;;2076628;28;20401;-69
2022/12/14 03:55:25;;;;;;;17.92;14.00;;;-0.90;99.90;;;;;;2075732;28;21546;-69
2022/12/14 03:56:55;;;;;;;16.90;13.98;;;-1.00;99.90;;;;;;2076204;28;20021;-69
2022/12/14 03:58:02;;;;;;;16.85;13.82;;;-1.00;99.90;;;;;;2075597;28;20040;-69
2022/12/14 03:59:19;;;;;;;18.17;14.35;;;-1.00;99.90;;;;;;2075809;28;20041;-69
2022/12/14 04:00:23;;;;;;;17.92;13.60;;;-1.00;99.90;;;;;;2071795;28;20018;-69
2022/12/14 04:01:55;;;;;;;15.38;12.80;;;-1.00;99.90;;;;;;2076765;28;20057;-69
2022/12/14 04:03:17;;;;;;;18.15;13.60;;;-1.00;99.90;;;;;;2059160;28;20026;-69
2022/12/14 04:04:34;;;;;;;20.20;14.73;;;-1.00;99.90;;;;;;2075490;28;20060;-69
2022/12/14 04:05:51;;;;;;;16.70;14.02;;;-1.00;99.90;;;;;;2075386;28;20018;-69
2022/12/14 04:07:09;;;;;;;20.02;14.45;;;-1.00;99.90;;;;;;2076010;28;20021;-69
2022/12/14 04:08:33;;;;;;;18.23;14.18;;;-1.10;99.90;;;;;;2074719;28;20789;-69
2022/12/14 04:09:50;;;;;;;17.83;13.25;;;-1.00;99.90;;;;;;2078382;28;20501;-69
2022/12/14 04:19:49;;;;;;;15.80;12.27;;;-1.10;99.90;;;;;;2076126;28;20029;-69
2022/12/14 04:20:59;;;;;;;13.90;11.85;;;-1.10;99.90;;;;;;2074962;28;20025;-69
2022/12/14 04:22:17;;;;;;;15.82;11.82;;;-1.10;99.90;;;;;;2075175;28;20355;-69
2022/12/14 04:26:23;;;;;;;15.73;11.73;;;-1.10;99.90;;;;;;2074913;28;20030;-69
2022/12/14 04:27:24;;;;;;;15.60;12.23;;;-1.10;99.90;;;;;;2075893;28;20053;-69
2022/12/14 04:29:59;;;;;;;14.60;11.40;;;-1.10;99.90;;;;;;2075877;28;20033;-69
2022/12/14 04:31:06;;;;;;;14.75;10.73;;;-1.10;99.90;;;;;;2075069;28;20433;-69
2022/12/14 04:32:21;;;;;;;14.57;11.23;;;-1.10;99.90;;;;;;2077375;28;20033;-69
2022/12/14 04:34:45;;;;;;;13.90;10.32;;;-1.10;99.90;;;;;;2075404;28;20025;-69
2022/12/14 04:35:47;;;;;;;15.07;10.93;;;-1.10;99.90;;;;;;2077114;28;20030;-69
2022/12/14 04:36:54;;;;;;;15.10;11.30;;;-1.10;99.90;;;;;;2076796;28;20025;-69
2022/12/14 04:38:01;;;;;;;13.00;11.50;;;-1.00;99.90;;;;;;2075996;28;20424;-69
2022/12/14 04:39:09;;;;;;;12.27;9.93;;;-1.00;99.90;;;;;;2075933;28;20096;-69
2022/12/14 04:40:14;;;;;;;15.15;11.60;;;-1.00;99.90;;;;;;2076311;28;20552;-69
2022/12/14 04:41:22;;;;;;;12.52;10.00;;;-1.00;99.90;;;;;;2075414;28;20026;-69
2022/12/14 04:42:28;;;;;;;12.93;10.63;;;-1.00;99.90;;;;;;2074542;28;20501;-70
2022/12/14 04:43:37;;;;;;;15.27;10.68;;;-1.00;99.90;;;;;;2076180;28;20026;-70
2022/12/14 04:44:41;;;;;;;12.32;10.13;;;-0.90;99.90;;;;;;2075883;28;20080;-69
2022/12/14 04:46:11;;;;;;;12.70;10.52;;;-1.00;99.90;;;;;;2075212;28;20037;-69
2022/12/14 04:47:16;;;;;;;12.90;10.57;;;-0.90;99.90;;;;;;2075266;28;20033;-69
2022/12/14 04:48:41;;;;;;;13.55;10.50;;;-1.00;99.90;;;;;;2076484;28;20273;-69
2022/12/14 04:50:08;;;;;;;12.13;10.23;;;-0.90;99.90;;;;;;2076828;28;20018;-69
2022/12/14 04:51:25;;;;;;;14.20;10.93;;;-1.00;99.90;;;;;;2076237;28;20029;-69
2022/12/14 04:52:32;;;;;;;12.88;10.43;;;-0.90;99.90;;;;;;2074552;28;20033;-69
2022/12/14 04:53:34;;;;;;;14.05;11.30;;;-0.90;99.90;;;;;;2075759;28;20057;-69
2022/12/14 04:55:13;;;;;;;13.10;10.75;;;-0.90;99.90;;;;;;2074040;28;20033;-69
2022/12/14 04:56:23;;;;;;;13.23;11.32;;;-0.90;99.90;;;;;;2071359;28;20046;-69
2022/12/14 04:57:32;;;;;;;14.15;10.30;;;-0.90;99.90;;;;;;2074566;28;20018;-69
2022/12/14 04:58:34;;;;;;;13.45;10.98;;;-0.90;99.90;;;;;;2074905;28;20029;-69
2022/12/14 04:59:35;;;;;;;11.50;9.73;;;-0.90;99.90;;;;;;2076968;28;20107;-69
2022/12/14 05:00:55;;;;;;;14.40;11.63;;;-0.90;99.90;;;;;;2075152;28;20026;-69
2022/12/14 05:02:14;;;;;;;12.88;10.95;;;-0.90;99.90;;;;;;2075007;28;20024;-69
2022/12/14 05:03:24;;;;;;;13.75;11.23;;;-0.90;99.90;;;;;;2075522;28;20029;-69
2022/12/14 05:04:53;;;;;;;13.40;10.98;;;-0.90;99.90;;;;;;2077030;28;20025;-69
2022/12/14 05:06:25;;;;;;;13.52;10.15;;;-0.90;99.90;;;;;;2075845;28;20091;-69
2022/12/14 05:07:46;;;;;;;13.18;10.70;;;-0.90;99.90;;;;;;2072810;28;20061;-69
2022/12/14 05:09:03;;;;;;;12.73;10.55;;;-0.90;99.90;;;;;;2075949;28;20100;-69
2022/12/14 05:10:18;;;;;;;17.02;11.85;;;-0.90;99.90;;;;;;2074343;28;20113;-69
2022/12/14 05:11:27;;;;;;;15.43;10.05;;;-0.90;99.90;;;;;;2074400;28;20606;-69
2022/12/14 05:12:47;;;;;;;13.95;11.10;;;-0.90;99.90;;;;;;2075995;28;20084;-69
2022/12/14 05:13:49;;;;;;;16.45;11.40;;;-0.90;99.90;;;;;;2074176;28;20025;-69
2022/12/14 05:14:56;;;;;;;15.40;10.73;;;-0.90;99.90;;;;;;2074510;28;20072;-69
2022/12/14 05:15:58;;;;;;;13.57;11.65;;;-0.90;99.90;;;;;;2076911;28;20046;-69
2022/12/14 05:17:01;;;;;;;12.35;10.70;;;-0.90;99.90;;;;;;2075993;28;20017;-69
2022/12/14 05:18:06;;;;;;;13.63;11.05;;;-0.90;99.90;;;;;;2074671;28;20025;-69
2022/12/14 05:19:08;;;;;;;13.23;10.75;;;-0.80;99.90;;;;;;2073673;28;20034;-69
2022/12/14 05:20:19;;;;;;;13.25;11.25;;;-0.90;99.90;;;;;;2072950;28;20061;-69
2022/12/14 05:22:39;;;;;;;12.32;11.02;;;-0.90;99.90;;;;;;2075554;28;20033;-69
2022/12/14 05:23:40;;;;;;;13.35;10.77;;;-0.90;99.90;;;;;;2076830;28;20022;-69
2022/12/14 05:24:40;;;;;;;14.60;11.82;;;-0.80;99.90;;;;;;2075339;28;20036;-69
2022/12/14 05:25:41;;;;;;;14.35;10.70;;;-0.90;99.90;;;;;;2074512;28;20133;-69
2022/12/14 05:26:42;;;;;;;14.05;10.90;;;-0.80;99.90;;;;;;2075121;28;20022;-69
2022/12/14 05:27:43;;;;;;;13.55;10.30;;;-0.90;99.90;;;;;;2073585;28;20587;-69
2022/12/14 05:28:43;;;;;;;11.68;10.27;;;-0.90;99.90;;;;;;2075299;28;20115;-69
2022/12/14 05:29:44;;;;;;;17.35;10.93;;;-0.90;99.90;;;;;;2074599;28;20044;-69
2022/12/14 05:30:44;;;;;;;13.25;11.02;;;-0.90;99.90;;;;;;2073876;28;20746;-69
2022/12/14 05:31:45;;;;;;;13.77;10.23;;;-0.80;99.90;;;;;;2074226;28;20029;-69
2022/12/14 05:32:46;;;;;;;12.15;9.82;;;-0.80;99.90;;;;;;2073906;28;20025;-69
2022/12/14 05:33:46;;;;;;;14.55;10.50;;;-0.80;99.90;;;;;;2076356;28;20105;-69
2022/12/14 05:34:47;;;;;;;14.15;10.98;;;-0.90;99.90;;;;;;2074689;28;20386;-69
2022/12/14 05:35:47;;;;;;;14.10;11.82;;;-0.90;99.90;;;;;;2077068;28;20033;-69
2022/12/14 05:36:48;;;;;;;13.55;10.88;;;-0.90;99.90;;;;;;2075827;28;20405;-69
2022/12/14 05:37:48;;;;;;;12.50;10.57;;;-0.90;99.90;;;;;;2076037;28;20127;-69
2022/12/14 05:38:49;;;;;;;12.70;10.73;;;-0.90;99.90;;;;;;2074792;28;20076;-69
2022/12/14 05:39:49;;;;;;;13.05;10.35;;;-0.80;99.90;;;;;;2074140;28;20116;-69
2022/12/14 05:40:50;;;;;;;13.95;11.32;;;-0.90;99.90;;;;;;2074663;28;20041;-69
2022/12/14 05:41:52;;;;;;;13.45;10.88;;;-0.90;99.90;;;;;;2076309;28;20071;-69
2022/12/14 05:43:03;;;;;;;13.88;10.38;;;-0.90;99.90;;;;;;2074433;28;20044;-69
2022/12/14 05:44:04;;;;;;;13.63;10.77;;;-0.90;99.90;;;;;;2075220;28;20038;-69
2022/12/14 05:45:05;;;;;;;13.50;10.98;;;-0.90;99.90;;;;;;2074366;28;20060;-69
2022/12/14 05:46:06;;;;;;;14.73;11.48;;;-0.90;99.90;;;;;;2078189;28;20014;-69
2022/12/14 05:47:06;;;;;;;13.40;11.15;;;-0.90;99.90;;;;;;2077678;28;20025;-69
2022/12/14 05:48:07;;;;;;;13.35;11.05;;;-1.00;99.90;;;;;;2076506;28;20029;-69
2022/12/14 05:49:07;;;;;;;15.60;11.23;;;-0.90;99.90;;;;;;2077283;28;20497;-69
2022/12/14 05:50:08;;;;;;;13.57;11.20;;;-0.90;99.90;;;;;;2077369;28;20032;-69
2022/12/14 05:51:11;;;;;;;13.02;10.43;;;-0.90;99.90;;;;;;2076433;28;20018;-69
2022/12/14 05:52:12;;;;;;;17.27;11.02;;;-0.90;99.90;;;;;;2076807;28;20021;-69
2022/12/14 05:53:12;;;;;;;13.32;10.55;;;-0.90;99.90;;;;;;2077858;28;20104;-69
2022/12/14 05:54:13;;;;;;;13.77;11.23;;;-0.90;99.90;;;;;;2076001;28;20544;-69
2022/12/14 05:55:13;;;;;;;13.43;10.30;;;-0.80;99.90;;;;;;2075820;28;20033;-69
2022/12/14 05:56:14;;;;;;;13.63;11.10;;;-0.80;99.90;;;;;;2077328;28;20030;-69